マイアミ の空港の天気 - METARとTAF

マイアミ国際空港 ( KMIA / MIA ) - アメリカ フロリダ州マイアミ
飛行場実況気象(Metar)
観測時間06/17 15:39 EDT (06/17 19:39 UTC)
風向・風速北 3m/s
視程10km以上
天気現象
全天の4割程度の雲 雲底高度 610m
全天の8割程度の雲 雲底高度 820m
全天を覆う雲 雲底高度 2440m
気温25.6℃
湿度82%
気圧1018hPa
METARKMIA 171939Z 35006KT 10SM TS SCT020CB BKN027 OVC080 26/22 A3006 RMK AO2 RAB17E38 TSE19B37 OCNL LTGICCG VC NW-NE TS VC NW-NE MOV NE P0003 T02560222
過去の天気等 Google飛行場航空写真 Wunderground天気予報

過去48時間のMETAR

飛行場予報(TAF)
発表時間: 6/17 13:27 EDT (6/17 17:27 UTC)
予報対象時間: 17日14時 EDT ~ 18日20時 EDT
風向・風速南南東 4m/s
視程10km以上
天気現象しゅう雨 周辺で雷
全天の4割程度の積乱雲 雲底高度 760m
全天の8割程度の雲 雲底高度 1520m
全天を覆う雲 雲底高度 7620m
17日20時 EDT から
風向・風速南東 3m/s
視程10km以上
天気現象周辺でしゅう雨
全天の4割程度の雲 雲底高度 760m
全天の8割程度の雲 雲底高度 2130m
18日11時 EDT から
風向・風速南 5m/s
視程10km以上
天気現象周辺で雷
全天の4割程度の積乱雲 雲底高度 910m
全天の8割程度の雲 雲底高度 1520m
KMIA 171727Z 1718/1824 16008KT P6SM SHRA VCTS SCT025CB BKN050 OVC250
FM180000 13006KT P6SM VCSH SCT025 BKN070
FM181500 19010KT P6SM VCTS SCT030CB BKN050